Terminal Aerodrome Forecast
Issued by NWS

Home | Current Version | Previous Version | Text Only | Print | Product List | Glossary On
Versions: 1 2 3 4 5 6 7 8 9 10 11 12 13 14 15 16 17 18 19 20 21 22 23 24 25 26
762
FTUS42 KMLB 161136
TAFSFB
TAF
KSFB 161136Z 1612/1712 19006KT P6SM FEW150 BKN250
     FM161500 25010KT P6SM SCT040 BKN200
     FM161700 26012KT P6SM VCSH BKN040
     FM170000 26006KT P6SM SCT040 BKN080
     FM170700 34006KT P6SM BKN025=

USA.gov is the U.S. government's official web portal to all federal, state and local government web resources and services.